sensor_id;sensor_type;location;lat;lon;timestamp;pressure;altitude;pressure_sealevel;temperature;humidity
6393;BME280;3229;42.674;23.282;2023-04-15T00:00:49;93883.72;;;13.55;49.00
6393;BME280;3229;42.674;23.282;2023-04-15T00:03:18;93888.44;;;13.52;49.04
6393;BME280;3229;42.674;23.282;2023-04-15T00:05:44;93884.44;;;13.49;49.45
6393;BME280;3229;42.674;23.282;2023-04-15T00:08:11;93880.28;;;13.48;49.24
6393;BME280;3229;42.674;23.282;2023-04-15T00:10:39;93877.69;;;13.48;49.39
6393;BME280;3229;42.674;23.282;2023-04-15T00:13:08;93872.56;;;13.48;49.65
6393;BME280;3229;42.674;23.282;2023-04-15T00:15:35;93863.81;;;13.43;49.61
6393;BME280;3229;42.674;23.282;2023-04-15T00:18:02;93876.28;;;13.46;49.90
6393;BME280;3229;42.674;23.282;2023-04-15T00:20:31;93876.47;;;13.44;50.06
6393;BME280;3229;42.674;23.282;2023-04-15T00:22:57;93869.28;;;13.40;50.21
6393;BME280;3229;42.674;23.282;2023-04-15T00:25:25;93874.88;;;13.43;50.43
6393;BME280;3229;42.674;23.282;2023-04-15T00:27:51;93866.72;;;13.40;50.49
6393;BME280;3229;42.674;23.282;2023-04-15T00:30:18;93871.50;;;13.43;50.53
6393;BME280;3229;42.674;23.282;2023-04-15T00:32:45;93875.81;;;13.42;50.77
6393;BME280;3229;42.674;23.282;2023-04-15T00:35:13;93880.34;;;13.40;50.88
6393;BME280;3229;42.674;23.282;2023-04-15T00:37:41;93875.38;;;13.39;50.87
6393;BME280;3229;42.674;23.282;2023-04-15T00:40:11;93858.09;;;13.33;51.07
6393;BME280;3229;42.674;23.282;2023-04-15T00:42:38;93874.06;;;13.43;50.92
6393;BME280;3229;42.674;23.282;2023-04-15T00:45:05;93875.47;;;13.45;51.27
6393;BME280;3229;42.674;23.282;2023-04-15T00:47:34;93867.78;;;13.45;51.26
6393;BME280;3229;42.674;23.282;2023-04-15T00:50:02;93865.38;;;13.44;51.47
6393;BME280;3229;42.674;23.282;2023-04-15T00:52:29;93873.69;;;13.46;51.31
6393;BME280;3229;42.674;23.282;2023-04-15T00:54:57;93870.34;;;13.45;51.30
6393;BME280;3229;42.674;23.282;2023-04-15T00:57:25;93875.66;;;13.44;51.85
6393;BME280;3229;42.674;23.282;2023-04-15T00:59:54;93878.38;;;13.42;51.92
6393;BME280;3229;42.674;23.282;2023-04-15T01:02:21;93870.94;;;13.33;51.65
6393;BME280;3229;42.674;23.282;2023-04-15T01:04:49;93883.69;;;13.41;52.03
6393;BME280;3229;42.674;23.282;2023-04-15T01:07:16;93889.81;;;13.40;51.63
6393;BME280;3229;42.674;23.282;2023-04-15T01:09:43;93889.03;;;13.39;51.96
6393;BME280;3229;42.674;23.282;2023-04-15T01:12:12;93889.81;;;13.40;52.00
6393;BME280;3229;42.674;23.282;2023-04-15T01:14:40;93892.38;;;13.40;52.00
6393;BME280;3229;42.674;23.282;2023-04-15T01:17:07;93889.97;;;13.38;52.12
6393;BME280;3229;42.674;23.282;2023-04-15T01:19:35;93885.81;;;13.37;52.26
6393;BME280;3229;42.674;23.282;2023-04-15T01:22:02;93873.50;;;13.33;52.19
6393;BME280;3229;42.674;23.282;2023-04-15T01:24:30;93881.84;;;13.35;52.40
6393;BME280;3229;42.674;23.282;2023-04-15T01:26:59;93880.22;;;13.34;52.26
6393;BME280;3229;42.674;23.282;2023-04-15T01:29:25;93868.56;;;13.31;52.50
6393;BME280;3229;42.674;23.282;2023-04-15T01:31:54;93796.13;;;12.83;52.59
6393;BME280;3229;42.674;23.282;2023-04-15T01:34:22;93869.22;;;13.25;52.63
6393;BME280;3229;42.674;23.282;2023-04-15T01:36:48;93872.78;;;13.24;52.74
6393;BME280;3229;42.674;23.282;2023-04-15T01:39:15;93866.22;;;13.21;53.11
6393;BME280;3229;42.674;23.282;2023-04-15T01:41:42;93879.38;;;13.18;53.06
6393;BME280;3229;42.674;23.282;2023-04-15T01:44:10;93885.84;;;13.14;53.39
6393;BME280;3229;42.674;23.282;2023-04-15T01:46:37;93877.50;;;13.12;53.31
6393;BME280;3229;42.674;23.282;2023-04-15T01:49:04;93881.38;;;13.08;53.54
6393;BME280;3229;42.674;23.282;2023-04-15T01:51:30;93890.22;;;13.05;53.52
6393;BME280;3229;42.674;23.282;2023-04-15T01:53:57;93891.56;;;13.01;53.44
6393;BME280;3229;42.674;23.282;2023-04-15T01:56:24;93901.03;;;13.01;53.66
6393;BME280;3229;42.674;23.282;2023-04-15T01:58:51;93899.94;;;12.95;54.04
6393;BME280;3229;42.674;23.282;2023-04-15T02:01:20;93899.13;;;12.95;53.92
6393;BME280;3229;42.674;23.282;2023-04-15T02:03:46;93904.44;;;12.93;54.02
6393;BME280;3229;42.674;23.282;2023-04-15T02:06:13;93902.22;;;12.90;53.91
6393;BME280;3229;42.674;23.282;2023-04-15T02:08:40;93899.03;;;12.88;54.21
6393;BME280;3229;42.674;23.282;2023-04-15T02:11:07;93835.16;;;12.47;54.22
6393;BME280;3229;42.674;23.282;2023-04-15T02:13:34;93862.41;;;12.71;54.20
6393;BME280;3229;42.674;23.282;2023-04-15T02:16:01;93884.28;;;12.82;54.39
6393;BME280;3229;42.674;23.282;2023-04-15T02:18:30;93881.72;;;12.82;54.46
6393;BME280;3229;42.674;23.282;2023-04-15T02:20:56;93871.56;;;12.74;54.78
6393;BME280;3229;42.674;23.282;2023-04-15T02:23:23;93883.06;;;12.78;54.79
6393;BME280;3229;42.674;23.282;2023-04-15T02:25:50;93879.41;;;12.72;54.92
6393;BME280;3229;42.674;23.282;2023-04-15T02:28:17;93879.41;;;12.72;54.86
6393;BME280;3229;42.674;23.282;2023-04-15T02:30:46;93879.13;;;12.67;55.17
6393;BME280;3229;42.674;23.282;2023-04-15T02:33:13;93891.94;;;12.67;55.04
6393;BME280;3229;42.674;23.282;2023-04-15T02:35:42;93889.72;;;12.64;55.20
6393;BME280;3229;42.674;23.282;2023-04-15T02:38:09;93899.34;;;12.62;55.17
6393;BME280;3229;42.674;23.282;2023-04-15T02:40:36;93883.22;;;12.53;55.27
6393;BME280;3229;42.674;23.282;2023-04-15T02:43:03;93892.50;;;12.54;55.28
6393;BME280;3229;42.674;23.282;2023-04-15T02:45:31;93891.25;;;12.50;55.50
6393;BME280;3229;42.674;23.282;2023-04-15T02:47:58;93894.59;;;12.51;55.57
6393;BME280;3229;42.674;23.282;2023-04-15T02:50:28;93891.56;;;12.47;55.53
6393;BME280;3229;42.674;23.282;2023-04-15T02:52:57;93890.16;;;12.45;55.72
6393;BME280;3229;42.674;23.282;2023-04-15T02:55:25;93910.03;;;12.43;56.01
6393;BME280;3229;42.674;23.282;2023-04-15T02:57:52;93900.91;;;12.40;55.88
6393;BME280;3229;42.674;23.282;2023-04-15T03:00:19;93898.50;;;12.39;56.01
6393;BME280;3229;42.674;23.282;2023-04-15T03:02:46;93898.06;;;12.35;55.96
6393;BME280;3229;42.674;23.282;2023-04-15T03:05:16;93903.34;;;12.34;56.13
6393;BME280;3229;42.674;23.282;2023-04-15T03:07:43;93912.34;;;12.29;55.99
6393;BME280;3229;42.674;23.282;2023-04-15T03:10:11;93904.16;;;12.26;56.29
6393;BME280;3229;42.674;23.282;2023-04-15T03:12:38;93906.13;;;12.24;56.37
6393;BME280;3229;42.674;23.282;2023-04-15T03:15:06;93890.19;;;12.05;56.26
6393;BME280;3229;42.674;23.282;2023-04-15T03:17:33;93916.06;;;12.19;56.21
6393;BME280;3229;42.674;23.282;2023-04-15T03:20:00;93922.31;;;12.16;56.26
6393;BME280;3229;42.674;23.282;2023-04-15T03:22:27;93926.84;;;12.14;56.25
6393;BME280;3229;42.674;23.282;2023-04-15T03:24:54;93916.91;;;12.11;56.26
6393;BME280;3229;42.674;23.282;2023-04-15T03:27:22;93922.34;;;12.08;56.45
6393;BME280;3229;42.674;23.282;2023-04-15T03:29:49;93926.56;;;12.01;56.29
6393;BME280;3229;42.674;23.282;2023-04-15T03:32:16;93925.59;;;12.02;56.35
6393;BME280;3229;42.674;23.282;2023-04-15T03:34:43;93930.06;;;12.00;56.41
6393;BME280;3229;42.674;23.282;2023-04-15T03:37:10;93928.00;;;11.95;56.37
6393;BME280;3229;42.674;23.282;2023-04-15T03:39:36;93934.75;;;11.96;56.51
6393;BME280;3229;42.674;23.282;2023-04-15T03:42:03;93940.97;;;11.94;56.45
6393;BME280;3229;42.674;23.282;2023-04-15T03:44:31;93947.88;;;11.93;56.57
6393;BME280;3229;42.674;23.282;2023-04-15T03:46:58;93956.53;;;11.92;56.62
6393;BME280;3229;42.674;23.282;2023-04-15T03:49:25;93960.53;;;11.87;56.44
6393;BME280;3229;42.674;23.282;2023-04-15T03:51:52;93965.31;;;11.90;56.68
6393;BME280;3229;42.674;23.282;2023-04-15T03:54:18;93966.44;;;11.87;56.59
6393;BME280;3229;42.674;23.282;2023-04-15T03:56:45;93964.72;;;11.88;56.51
6393;BME280;3229;42.674;23.282;2023-04-15T03:59:12;93964.53;;;11.89;56.48
6393;BME280;3229;42.674;23.282;2023-04-15T04:01:40;93960.38;;;11.88;56.54
6393;BME280;3229;42.674;23.282;2023-04-15T04:04:07;93961.78;;;11.91;56.64
6393;BME280;3229;42.674;23.282;2023-04-15T04:06:34;93971.91;;;11.92;56.55
6393;BME280;3229;42.674;23.282;2023-04-15T04:09:00;93972.69;;;11.93;56.46
6393;BME280;3229;42.674;23.282;2023-04-15T04:11:28;93970.63;;;11.96;56.46
6393;BME280;3229;42.674;23.282;2023-04-15T04:13:54;93968.84;;;11.97;56.39
6393;BME280;3229;42.674;23.282;2023-04-15T04:16:21;93967.88;;;11.98;56.37
6393;BME280;3229;42.674;23.282;2023-04-15T04:18:49;93972.34;;;12.04;56.31
6393;BME280;3229;42.674;23.282;2023-04-15T04:21:16;93964.97;;;12.09;56.11
6393;BME280;3229;42.674;23.282;2023-04-15T04:23:43;93965.88;;;12.24;56.01
6393;BME280;3229;42.674;23.282;2023-04-15T04:26:10;93967.69;;;12.47;55.86
6393;BME280;3229;42.674;23.282;2023-04-15T04:28:36;93951.44;;;12.63;55.32
6393;BME280;3229;42.674;23.282;2023-04-15T04:31:05;93956.63;;;13.09;54.70
6393;BME280;3229;42.674;23.282;2023-04-15T04:33:32;93965.13;;;13.55;53.66
6393;BME280;3229;42.674;23.282;2023-04-15T04:36:00;93965.94;;;14.08;53.37
6393;BME280;3229;42.674;23.282;2023-04-15T04:38:27;93969.00;;;14.63;53.18
6393;BME280;3229;42.674;23.282;2023-04-15T04:40:53;93957.63;;;15.08;52.71
6393;BME280;3229;42.674;23.282;2023-04-15T04:43:20;93972.34;;;15.78;51.97
6393;BME280;3229;42.674;23.282;2023-04-15T04:45:47;93972.09;;;16.36;51.48
6393;BME280;3229;42.674;23.282;2023-04-15T04:48:14;93977.94;;;16.93;50.85
6393;BME280;3229;42.674;23.282;2023-04-15T04:50:41;93982.44;;;17.45;50.15
6393;BME280;3229;42.674;23.282;2023-04-15T04:53:10;93960.38;;;17.76;49.37
6393;BME280;3229;42.674;23.282;2023-04-15T04:55:37;93989.78;;;18.28;48.95
6393;BME280;3229;42.674;23.282;2023-04-15T04:58:04;93994.09;;;18.54;48.64
6393;BME280;3229;42.674;23.282;2023-04-15T05:00:31;94003.06;;;18.71;48.27
6393;BME280;3229;42.674;23.282;2023-04-15T05:02:58;94007.59;;;18.83;47.90
6393;BME280;3229;42.674;23.282;2023-04-15T05:05:25;94009.94;;;18.91;47.42
6393;BME280;3229;42.674;23.282;2023-04-15T05:07:51;94017.09;;;18.95;47.14
6393;BME280;3229;42.674;23.282;2023-04-15T05:10:20;94021.31;;;18.96;46.96
6393;BME280;3229;42.674;23.282;2023-04-15T05:12:46;94023.66;;;19.04;46.56
6393;BME280;3229;42.674;23.282;2023-04-15T05:15:13;94028.56;;;19.19;46.21
6393;BME280;3229;42.674;23.282;2023-04-15T05:17:40;94031.00;;;19.46;45.44
6393;BME280;3229;42.674;23.282;2023-04-15T05:20:08;94033.56;;;19.91;44.65
6393;BME280;3229;42.674;23.282;2023-04-15T05:22:35;94035.00;;;20.55;44.08
6393;BME280;3229;42.674;23.282;2023-04-15T05:25:03;94027.84;;;21.24;43.49
6393;BME280;3229;42.674;23.282;2023-04-15T05:27:31;94025.50;;;22.06;42.96
6393;BME280;3229;42.674;23.282;2023-04-15T05:29:58;94034.13;;;22.89;42.28
6393;BME280;3229;42.674;23.282;2023-04-15T05:32:25;94028.97;;;23.74;41.37
6393;BME280;3229;42.674;23.282;2023-04-15T05:34:52;94036.38;;;24.62;40.46
6393;BME280;3229;42.674;23.282;2023-04-15T05:37:19;94023.06;;;25.51;40.07
6393;BME280;3229;42.674;23.282;2023-04-15T05:39:46;94024.38;;;26.40;39.29
6393;BME280;3229;42.674;23.282;2023-04-15T05:42:14;94025.38;;;27.29;38.26
6393;BME280;3229;42.674;23.282;2023-04-15T05:44:44;94031.06;;;28.19;37.37
6393;BME280;3229;42.674;23.282;2023-04-15T05:47:11;94022.56;;;28.98;36.91
6393;BME280;3229;42.674;23.282;2023-04-15T05:49:38;94026.06;;;29.88;36.17
6393;BME280;3229;42.674;23.282;2023-04-15T05:52:05;94037.81;;;30.69;35.12
6393;BME280;3229;42.674;23.282;2023-04-15T05:54:31;94030.94;;;31.45;34.84
6393;BME280;3229;42.674;23.282;2023-04-15T05:56:58;94034.97;;;32.18;34.11
6393;BME280;3229;42.674;23.282;2023-04-15T05:59:25;94054.94;;;32.89;33.50
6393;BME280;3229;42.674;23.282;2023-04-15T06:01:54;94052.03;;;33.60;33.07
6393;BME280;3229;42.674;23.282;2023-04-15T06:04:21;94045.56;;;34.25;32.18
6393;BME280;3229;42.674;23.282;2023-04-15T06:06:48;94053.59;;;34.87;31.66
6393;BME280;3229;42.674;23.282;2023-04-15T06:09:15;94049.09;;;35.44;31.20
6393;BME280;3229;42.674;23.282;2023-04-15T06:11:41;94012.41;;;35.73;30.61
6393;BME280;3229;42.674;23.282;2023-04-15T06:14:08;94057.50;;;36.56;30.17
6393;BME280;3229;42.674;23.282;2023-04-15T06:16:35;94060.34;;;37.06;29.80
6393;BME280;3229;42.674;23.282;2023-04-15T06:19:03;94066.09;;;37.55;29.23
6393;BME280;3229;42.674;23.282;2023-04-15T06:21:30;94073.53;;;38.00;29.10
6393;BME280;3229;42.674;23.282;2023-04-15T06:23:58;94069.28;;;38.41;28.80
6393;BME280;3229;42.674;23.282;2023-04-15T06:26:25;94080.31;;;38.85;28.35
6393;BME280;3229;42.674;23.282;2023-04-15T06:28:52;94084.50;;;39.19;27.87
6393;BME280;3229;42.674;23.282;2023-04-15T06:31:19;94088.66;;;39.53;27.92
6393;BME280;3229;42.674;23.282;2023-04-15T06:33:46;94085.09;;;39.86;27.67
6393;BME280;3229;42.674;23.282;2023-04-15T06:36:14;94078.91;;;40.10;27.52
6393;BME280;3229;42.674;23.282;2023-04-15T06:38:41;94067.13;;;40.27;27.19
6393;BME280;3229;42.674;23.282;2023-04-15T06:41:08;94102.63;;;40.80;27.08
6393;BME280;3229;42.674;23.282;2023-04-15T06:43:35;94099.94;;;41.08;26.66
6393;BME280;3229;42.674;23.282;2023-04-15T06:46:01;94104.44;;;41.35;26.24
6393;BME280;3229;42.674;23.282;2023-04-15T06:48:28;94108.88;;;41.59;25.81
6393;BME280;3229;42.674;23.282;2023-04-15T06:50:55;94112.47;;;41.83;26.25
6393;BME280;3229;42.674;23.282;2023-04-15T06:53:24;94099.94;;;42.06;25.79
6393;BME280;3229;42.674;23.282;2023-04-15T06:55:50;94101.13;;;42.25;25.54
6393;BME280;3229;42.674;23.282;2023-04-15T06:58:17;94103.44;;;42.46;25.35
6393;BME280;3229;42.674;23.282;2023-04-15T07:00:44;94083.63;;;42.54;25.45
6393;BME280;3229;42.674;23.282;2023-04-15T07:03:11;94099.91;;;42.80;25.12
6393;BME280;3229;42.674;23.282;2023-04-15T07:05:39;94089.44;;;42.98;25.36
6393;BME280;3229;42.674;23.282;2023-04-15T07:08:06;94094.31;;;43.12;25.20
6393;BME280;3229;42.674;23.282;2023-04-15T07:10:35;94071.69;;;42.94;24.66
6393;BME280;3229;42.674;23.282;2023-04-15T07:13:03;94092.91;;;42.99;25.16
6393;BME280;3229;42.674;23.282;2023-04-15T07:15:30;94092.00;;;42.91;25.04
6393;BME280;3229;42.674;23.282;2023-04-15T07:17:56;94099.16;;;42.83;24.84
6393;BME280;3229;42.674;23.282;2023-04-15T07:20:23;94099.53;;;42.82;25.36
6393;BME280;3229;42.674;23.282;2023-04-15T07:22:50;94099.97;;;42.84;24.63
6393;BME280;3229;42.674;23.282;2023-04-15T07:25:17;94100.81;;;42.88;25.03
6393;BME280;3229;42.674;23.282;2023-04-15T07:27:45;94085.66;;;42.60;25.14
6393;BME280;3229;42.674;23.282;2023-04-15T07:30:12;94105.41;;;42.49;25.30
6393;BME280;3229;42.674;23.282;2023-04-15T07:32:39;94104.59;;;42.45;24.86
6393;BME280;3229;42.674;23.282;2023-04-15T07:35:08;94108.47;;;42.47;24.60
6393;BME280;3229;42.674;23.282;2023-04-15T07:37:35;94079.63;;;42.09;24.79
6393;BME280;3229;42.674;23.282;2023-04-15T07:40:02;94097.25;;;42.06;24.91
6393;BME280;3229;42.674;23.282;2023-04-15T07:42:31;94093.69;;;41.83;25.12
6393;BME280;3229;42.674;23.282;2023-04-15T07:44:59;94097.69;;;41.57;24.98
6393;BME280;3229;42.674;23.282;2023-04-15T07:47:26;94091.63;;;41.29;25.32
6393;BME280;3229;42.674;23.282;2023-04-15T07:49:53;94110.34;;;41.25;25.10
6393;BME280;3229;42.674;23.282;2023-04-15T07:52:20;94107.38;;;41.15;25.15
6393;BME280;3229;42.674;23.282;2023-04-15T07:54:46;94099.66;;;40.97;25.54
6393;BME280;3229;42.674;23.282;2023-04-15T07:57:13;94106.81;;;40.93;25.40
6393;BME280;3229;42.674;23.282;2023-04-15T07:59:41;94113.91;;;40.85;25.15
6393;BME280;3229;42.674;23.282;2023-04-15T08:02:10;94130.69;;;40.82;25.08
6393;BME280;3229;42.674;23.282;2023-04-15T08:04:36;94124.81;;;40.77;25.63
6393;BME280;3229;42.674;23.282;2023-04-15T08:07:03;94120.47;;;40.72;25.46
6393;BME280;3229;42.674;23.282;2023-04-15T08:09:30;94121.81;;;40.66;25.20
6393;BME280;3229;42.674;23.282;2023-04-15T08:11:57;94120.94;;;40.62;25.49
6393;BME280;3229;42.674;23.282;2023-04-15T08:14:23;94114.81;;;40.49;25.28
6393;BME280;3229;42.674;23.282;2023-04-15T08:16:50;94115.66;;;40.37;25.50
6393;BME280;3229;42.674;23.282;2023-04-15T08:19:18;94114.06;;;40.21;25.33
6393;BME280;3229;42.674;23.282;2023-04-15T08:21:45;94114.50;;;40.10;25.15
6393;BME280;3229;42.674;23.282;2023-04-15T08:24:12;94117.41;;;40.05;25.09
6393;BME280;3229;42.674;23.282;2023-04-15T08:26:40;94121.88;;;40.01;25.19
6393;BME280;3229;42.674;23.282;2023-04-15T08:29:06;94101.47;;;39.97;24.81
6393;BME280;3229;42.674;23.282;2023-04-15T08:31:33;94111.25;;;40.05;24.97
6393;BME280;3229;42.674;23.282;2023-04-15T08:34:00;94108.47;;;40.01;24.87
6393;BME280;3229;42.674;23.282;2023-04-15T08:36:28;94123.41;;;40.02;24.86
6393;BME280;3229;42.674;23.282;2023-04-15T08:38:56;94106.47;;;39.98;24.92
6393;BME280;3229;42.674;23.282;2023-04-15T08:41:24;94094.31;;;39.88;24.90
6393;BME280;3229;42.674;23.282;2023-04-15T08:43:53;94105.50;;;39.78;24.85
6393;BME280;3229;42.674;23.282;2023-04-15T08:46:22;94094.34;;;39.52;25.04
6393;BME280;3229;42.674;23.282;2023-04-15T08:48:49;94094.75;;;39.17;25.14
6393;BME280;3229;42.674;23.282;2023-04-15T08:51:16;94097.38;;;38.80;25.43
6393;BME280;3229;42.674;23.282;2023-04-15T08:53:45;94088.19;;;38.36;25.48
6393;BME280;3229;42.674;23.282;2023-04-15T08:56:13;94084.22;;;38.00;25.11
6393;BME280;3229;42.674;23.282;2023-04-15T08:58:41;94089.56;;;37.71;25.39
6393;BME280;3229;42.674;23.282;2023-04-15T09:01:07;94092.09;;;37.29;25.21
6393;BME280;3229;42.674;23.282;2023-04-15T09:03:35;94090.34;;;36.95;25.43
6393;BME280;3229;42.674;23.282;2023-04-15T09:06:03;94077.41;;;36.58;25.44
6393;BME280;3229;42.674;23.282;2023-04-15T09:08:30;94077.88;;;36.26;25.72
6393;BME280;3229;42.674;23.282;2023-04-15T09:10:58;94082.91;;;36.01;25.50
6393;BME280;3229;42.674;23.282;2023-04-15T09:13:25;94049.66;;;35.64;25.54
6393;BME280;3229;42.674;23.282;2023-04-15T09:15:52;94071.25;;;35.62;25.60
6393;BME280;3229;42.674;23.282;2023-04-15T09:18:30;94060.22;;;35.47;25.46
6393;BME280;3229;42.674;23.282;2023-04-15T09:21:03;94055.66;;;35.30;25.69
6393;BME280;3229;42.674;23.282;2023-04-15T09:23:31;94066.69;;;35.14;25.54
6393;BME280;3229;42.674;23.282;2023-04-15T09:26:00;94066.91;;;34.95;25.29
6393;BME280;3229;42.674;23.282;2023-04-15T09:28:27;94064.13;;;34.69;25.79
6393;BME280;3229;42.674;23.282;2023-04-15T09:30:55;94071.72;;;34.40;25.40
6393;BME280;3229;42.674;23.282;2023-04-15T09:33:22;94072.63;;;34.13;25.34
6393;BME280;3229;42.674;23.282;2023-04-15T09:35:58;94068.78;;;33.83;25.20
6393;BME280;3229;42.674;23.282;2023-04-15T09:38:25;94063.50;;;33.69;25.51
6393;BME280;3229;42.674;23.282;2023-04-15T09:40:52;94045.56;;;33.38;25.54
6393;BME280;3229;42.674;23.282;2023-04-15T09:43:20;94035.06;;;33.19;25.19
6393;BME280;3229;42.674;23.282;2023-04-15T09:45:48;94052.63;;;33.15;24.72
6393;BME280;3229;42.674;23.282;2023-04-15T09:48:18;94051.63;;;32.97;24.83
6393;BME280;3229;42.674;23.282;2023-04-15T09:50:46;94045.22;;;32.85;25.06
6393;BME280;3229;42.674;23.282;2023-04-15T09:53:17;94050.81;;;32.69;24.86
6393;BME280;3229;42.674;23.282;2023-04-15T09:55:47;94058.53;;;32.52;25.06
6393;BME280;3229;42.674;23.282;2023-04-15T09:58:18;94052.31;;;32.24;25.13
6393;BME280;3229;42.674;23.282;2023-04-15T10:00:49;94075.28;;;32.10;25.50
6393;BME280;3229;42.674;23.282;2023-04-15T10:03:19;94062.72;;;31.83;25.57
6393;BME280;3229;42.674;23.282;2023-04-15T10:05:48;94051.47;;;31.72;25.75
6393;BME280;3229;42.674;23.282;2023-04-15T10:08:17;94073.63;;;31.57;25.60
6393;BME280;3229;42.674;23.282;2023-04-15T10:10:44;94067.44;;;31.43;25.31
6393;BME280;3229;42.674;23.282;2023-04-15T10:13:13;94059.09;;;31.36;25.28
6393;BME280;3229;42.674;23.282;2023-04-15T10:15:43;94044.34;;;31.30;25.63
6393;BME280;3229;42.674;23.282;2023-04-15T10:18:14;94047.78;;;31.30;25.26
6393;BME280;3229;42.674;23.282;2023-04-15T10:20:42;94044.91;;;31.27;25.42
6393;BME280;3229;42.674;23.282;2023-04-15T10:23:09;94034.88;;;31.23;25.55
6393;BME280;3229;42.674;23.282;2023-04-15T10:25:38;94030.88;;;31.26;25.42
6393;BME280;3229;42.674;23.282;2023-04-15T10:28:05;94040.13;;;31.29;25.55
6393;BME280;3229;42.674;23.282;2023-04-15T10:30:32;94040.91;;;31.29;25.13
6393;BME280;3229;42.674;23.282;2023-04-15T10:32:59;94033.81;;;31.24;25.21
6393;BME280;3229;42.674;23.282;2023-04-15T10:35:29;94031.84;;;31.11;25.47
6393;BME280;3229;42.674;23.282;2023-04-15T10:37:57;94033.31;;;30.98;25.50
6393;BME280;3229;42.674;23.282;2023-04-15T10:40:26;94028.66;;;30.90;25.62
6393;BME280;3229;42.674;23.282;2023-04-15T10:42:56;94025.28;;;30.85;25.62
6393;BME280;3229;42.674;23.282;2023-04-15T10:45:25;94030.63;;;30.80;25.82
6393;BME280;3229;42.674;23.282;2023-04-15T10:47:54;94030.41;;;30.76;25.43
6393;BME280;3229;42.674;23.282;2023-04-15T10:50:21;94018.56;;;30.68;25.78
6393;BME280;3229;42.674;23.282;2023-04-15T10:52:51;94010.69;;;30.63;25.45
6393;BME280;3229;42.674;23.282;2023-04-15T10:55:19;94022.09;;;30.59;26.01
6393;BME280;3229;42.674;23.282;2023-04-15T10:57:50;94013.72;;;30.52;25.41
6393;BME280;3229;42.674;23.282;2023-04-15T11:00:19;94006.31;;;30.54;25.75
6393;BME280;3229;42.674;23.282;2023-04-15T11:02:50;94013.22;;;30.49;25.48
6393;BME280;3229;42.674;23.282;2023-04-15T11:05:18;94001.69;;;30.40;25.81
6393;BME280;3229;42.674;23.282;2023-04-15T11:08:05;94006.44;;;30.38;25.52
6393;BME280;3229;42.674;23.282;2023-04-15T11:10:50;94002.56;;;30.31;25.59
6393;BME280;3229;42.674;23.282;2023-04-15T11:13:27;94006.03;;;30.26;25.98
6393;BME280;3229;42.674;23.282;2023-04-15T11:15:57;94006.91;;;30.16;26.19
6393;BME280;3229;42.674;23.282;2023-04-15T11:18:27;94001.13;;;30.14;25.91
6393;BME280;3229;42.674;23.282;2023-04-15T11:20:56;93996.91;;;30.08;25.79
6393;BME280;3229;42.674;23.282;2023-04-15T11:23:30;93974.66;;;29.90;25.96
6393;BME280;3229;42.674;23.282;2023-04-15T11:25:58;94005.16;;;30.02;25.89
6393;BME280;3229;42.674;23.282;2023-04-15T11:28:25;93999.41;;;29.94;25.94
6393;BME280;3229;42.674;23.282;2023-04-15T11:30:53;94006.06;;;29.87;26.45
6393;BME280;3229;42.674;23.282;2023-04-15T11:33:21;93987.47;;;29.68;26.51
6393;BME280;3229;42.674;23.282;2023-04-15T11:35:49;94000.56;;;29.78;26.17
6393;BME280;3229;42.674;23.282;2023-04-15T11:38:17;94014.03;;;29.77;25.92
6393;BME280;3229;42.674;23.282;2023-04-15T11:40:45;94005.88;;;29.73;26.20
6393;BME280;3229;42.674;23.282;2023-04-15T11:43:14;94001.44;;;29.68;25.77
6393;BME280;3229;42.674;23.282;2023-04-15T11:45:53;93997.28;;;29.62;25.87
6393;BME280;3229;42.674;23.282;2023-04-15T11:48:22;94013.63;;;29.59;25.86
6393;BME280;3229;42.674;23.282;2023-04-15T11:50:53;94000.69;;;29.53;26.25
6393;BME280;3229;42.674;23.282;2023-04-15T11:53:21;93984.22;;;29.37;26.21
6393;BME280;3229;42.674;23.282;2023-04-15T11:55:52;94007.44;;;29.30;26.20
6393;BME280;3229;42.674;23.282;2023-04-15T11:58:20;93997.47;;;29.16;26.25
6393;BME280;3229;42.674;23.282;2023-04-15T12:00:49;93995.69;;;29.07;26.68
6393;BME280;3229;42.674;23.282;2023-04-15T12:03:20;94000.72;;;28.98;26.61
6393;BME280;3229;42.674;23.282;2023-04-15T12:06:07;94001.75;;;28.92;26.60
6393;BME280;3229;42.674;23.282;2023-04-15T12:08:57;94006.28;;;28.81;26.38
6393;BME280;3229;42.674;23.282;2023-04-15T12:11:34;94003.91;;;28.74;26.53
6393;BME280;3229;42.674;23.282;2023-04-15T12:14:09;93997.88;;;28.69;26.42
6393;BME280;3229;42.674;23.282;2023-04-15T12:16:40;93998.97;;;28.63;26.59
6393;BME280;3229;42.674;23.282;2023-04-15T12:19:09;93995.81;;;28.56;26.43
6393;BME280;3229;42.674;23.282;2023-04-15T12:21:37;93993.44;;;28.49;26.35
6393;BME280;3229;42.674;23.282;2023-04-15T12:24:06;93997.44;;;28.41;26.42
6393;BME280;3229;42.674;23.282;2023-04-15T12:26:36;94009.25;;;28.39;26.63
6393;BME280;3229;42.674;23.282;2023-04-15T12:29:05;94002.41;;;28.27;26.93
6393;BME280;3229;42.674;23.282;2023-04-15T12:31:33;94015.03;;;28.31;26.56
6393;BME280;3229;42.674;23.282;2023-04-15T12:34:00;94009.78;;;28.25;26.93
6393;BME280;3229;42.674;23.282;2023-04-15T12:36:27;94012.41;;;28.20;26.61
6393;BME280;3229;42.674;23.282;2023-04-15T12:38:57;94011.63;;;28.20;27.01
6393;BME280;3229;42.674;23.282;2023-04-15T12:41:24;94015.03;;;28.20;26.77
6393;BME280;3229;42.674;23.282;2023-04-15T12:43:52;94015.81;;;28.21;26.72
6393;BME280;3229;42.674;23.282;2023-04-15T12:46:19;94011.34;;;28.21;26.89
6393;BME280;3229;42.674;23.282;2023-04-15T12:48:46;94019.50;;;28.20;26.80
6393;BME280;3229;42.674;23.282;2023-04-15T12:51:13;94021.88;;;28.16;27.02
6393;BME280;3229;42.674;23.282;2023-04-15T12:53:40;94012.16;;;28.12;26.83
6393;BME280;3229;42.674;23.282;2023-04-15T12:56:06;94014.78;;;28.07;26.79
6393;BME280;3229;42.674;23.282;2023-04-15T12:58:33;94022.13;;;28.05;26.71
6393;BME280;3229;42.674;23.282;2023-04-15T13:01:01;94016.59;;;28.01;26.66
6393;BME280;3229;42.674;23.282;2023-04-15T13:03:28;94017.16;;;28.03;26.61
6393;BME280;3229;42.674;23.282;2023-04-15T13:05:55;94012.41;;;28.00;26.95
6393;BME280;3229;42.674;23.282;2023-04-15T13:08:22;94011.09;;;27.92;27.08
6393;BME280;3229;42.674;23.282;2023-04-15T13:10:49;94006.34;;;27.84;27.01
6393;BME280;3229;42.674;23.282;2023-04-15T13:13:16;94007.13;;;27.80;27.15